createdAt,value
2018-06-25T00:01:53.243Z,97642.48
2018-06-25T00:04:23.267Z,97642.84
2018-06-25T00:06:53.329Z,97648.93
2018-06-25T00:09:22.811Z,97647.83
2018-06-25T00:11:52.651Z,97645.52
2018-06-25T00:14:22.364Z,97647.75
2018-06-25T00:16:52.287Z,97644.03
2018-06-25T00:19:21.961Z,97648.44
2018-06-25T00:21:51.623Z,97643.72
2018-06-25T00:24:21.215Z,97642.42
2018-06-25T00:26:50.987Z,97642.07
2018-06-25T00:29:20.860Z,97648.06
2018-06-25T00:31:51.145Z,97650.91
2018-06-25T00:34:20.720Z,97650.05
2018-06-25T00:36:50.324Z,97651.11
2018-06-25T00:39:19.951Z,97645.12
2018-06-25T00:41:49.540Z,97645.22
2018-06-25T00:44:19.125Z,97648.22
2018-06-25T00:46:48.946Z,97650.15
2018-06-25T00:49:18.666Z,97642.41
2018-06-25T00:51:48.409Z,97649.33
2018-06-25T00:54:18.149Z,97651.56
2018-06-25T00:56:47.824Z,97648.73
2018-06-25T00:59:27.886Z,97653.25
2018-06-25T01:01:57.871Z,97654.08
2018-06-25T01:04:27.490Z,97652.77
2018-06-25T01:06:58.034Z,97656.14
2018-06-25T01:09:28.328Z,97651.26
2018-06-25T01:11:58.344Z,97650.67
2018-06-25T01:14:27.780Z,97646.98
2018-06-25T01:16:57.502Z,97646.02
2018-06-25T01:19:26.980Z,97649.22
2018-06-25T01:21:56.710Z,97653.98
2018-06-25T01:24:26.547Z,97650.43
2018-06-25T01:26:56.430Z,97651.84
2018-06-25T01:29:26.622Z,97655.03
2018-06-25T01:31:56.146Z,97654.03
2018-06-25T01:34:26.153Z,97655.78
2018-06-25T01:36:55.946Z,97654.86
2018-06-25T01:39:26.015Z,97658.98
2018-06-25T01:41:55.767Z,97653.85
2018-06-25T01:44:25.228Z,97655.74
2018-06-25T01:46:55.013Z,97654.81
2018-06-25T01:49:24.699Z,97657.67
2018-06-25T01:51:54.486Z,97660.05
2018-06-25T01:54:24.723Z,97656.13
2018-06-25T01:56:54.594Z,97658.36
2018-06-25T01:59:24.425Z,97661.91
2018-06-25T02:01:54.479Z,97656.57
2018-06-25T02:04:24.156Z,97661.25
2018-06-25T02:06:53.833Z,97661.16
2018-06-25T02:09:23.440Z,97659.61
2018-06-25T02:11:53.380Z,97660.82
2018-06-25T02:14:22.864Z,97660.72
2018-06-25T02:16:52.981Z,97660.30
2018-06-25T02:19:22.457Z,97660.09
2018-06-25T02:21:52.481Z,97658.78
2018-06-25T02:24:22.831Z,97661.50
2018-06-25T02:26:52.422Z,97664.40
2018-06-25T02:29:21.980Z,97662.03
2018-06-25T02:31:51.596Z,97666.05
2018-06-25T02:34:21.221Z,97669.33
2018-06-25T02:36:51.757Z,97669.23
2018-06-25T02:39:21.581Z,97670.41
2018-06-25T02:41:51.055Z,97668.37
2018-06-25T02:44:21.025Z,97667.92
2018-06-25T02:46:50.805Z,97674.71
2018-06-25T02:49:20.330Z,97667.97
2018-06-25T02:51:49.847Z,97670.86
2018-06-25T02:54:19.885Z,97674.11
2018-06-25T02:56:49.506Z,97670.08
2018-06-25T02:59:19.327Z,97677.34
2018-06-25T03:01:49.204Z,97670.80
2018-06-25T03:04:18.923Z,97675.11
2018-06-25T03:06:48.879Z,97672.48
2018-06-25T03:09:18.721Z,97673.80
2018-06-25T03:11:48.403Z,97676.77
2018-06-25T03:14:17.922Z,97679.38
2018-06-25T03:16:48.242Z,97677.97
2018-06-25T03:19:17.758Z,97675.36
2018-06-25T03:21:47.463Z,97666.57
2018-06-25T03:24:16.964Z,97664.30
2018-06-25T03:26:46.643Z,97668.98
2018-06-25T03:29:16.085Z,97677.49
2018-06-25T03:31:45.605Z,97675.53
2018-06-25T03:34:15.189Z,97677.73
2018-06-25T03:36:44.768Z,97678.28
2018-06-25T03:39:14.161Z,97683.37
2018-06-25T03:41:43.716Z,97680.47
2018-06-25T03:44:13.262Z,97682.84
2018-06-25T03:46:43.080Z,97680.58
2018-06-25T03:49:12.561Z,97686.19
2018-06-25T03:51:42.095Z,97682.51
2018-06-25T03:54:12.078Z,97685.50
2018-06-25T03:56:41.822Z,97689.81
2018-06-25T03:59:11.594Z,97686.44
2018-06-25T04:01:41.206Z,97682.64
2018-06-25T04:04:11.119Z,97680.47
2018-06-25T04:06:40.907Z,97685.36
2018-06-25T04:09:11.921Z,97677.86
2018-06-25T04:11:42.185Z,97682.16
2018-06-25T04:14:12.082Z,97682.89
2018-06-25T04:16:41.882Z,97692.37
2018-06-25T04:19:11.604Z,97693.44
2018-06-25T04:21:41.107Z,97696.05
2018-06-25T04:24:10.646Z,97695.19
2018-06-25T04:26:40.228Z,97697.27
2018-06-25T04:29:10.003Z,97703.42
2018-06-25T04:31:39.862Z,97712.01
2018-06-25T04:34:09.523Z,97713.11
2018-06-25T04:36:39.218Z,97707.39
2018-06-25T04:39:11.129Z,97710.50
2018-06-25T04:41:41.054Z,97715.15
2018-06-25T04:44:10.944Z,97715.42
2018-06-25T04:46:40.961Z,97715.13
2018-06-25T04:49:11.245Z,97718.37
2018-06-25T04:51:41.142Z,97725.64
2018-06-25T04:54:10.862Z,97727.58
2018-06-25T04:56:40.728Z,97731.78
2018-06-25T04:59:10.481Z,97729.96
2018-06-25T05:01:40.418Z,97732.72
2018-06-25T05:04:10.214Z,97729.63
2018-06-25T05:06:40.062Z,97729.80
2018-06-25T05:09:11.487Z,97730.34
2018-06-25T05:11:42.056Z,97730.86
2018-06-25T05:14:11.818Z,97734.75
2018-06-25T05:16:41.644Z,97740.52
2018-06-25T05:19:11.605Z,97736.99
2018-06-25T05:21:41.374Z,97735.47
2018-06-25T05:24:11.221Z,97736.30
2018-06-25T05:26:41.003Z,97745.27
2018-06-25T05:29:10.705Z,97745.05
2018-06-25T05:31:40.402Z,97741.61
2018-06-25T05:34:10.151Z,97757.23
2018-06-25T05:36:39.958Z,97754.02
2018-06-25T05:39:12.270Z,97749.88
2018-06-25T05:41:42.964Z,97760.02
2018-06-25T05:44:13.517Z,97757.94
2018-06-25T05:46:43.295Z,97757.88
2018-06-25T05:49:13.705Z,97760.87
2018-06-25T05:51:43.607Z,97761.47
2018-06-25T05:54:14.412Z,97764.28
2018-06-25T05:56:44.870Z,97769.95
2018-06-25T05:59:16.166Z,97770.30
2018-06-25T06:01:45.905Z,97769.36
2018-06-25T06:04:16.896Z,97768.77
2018-06-25T06:06:46.722Z,97779.11
2018-06-25T06:09:17.365Z,97778.33
2018-06-25T06:11:47.131Z,97779.81
2018-06-25T06:14:16.911Z,97777.38
2018-06-25T06:16:46.766Z,97775.86
2018-06-25T06:19:16.475Z,97773.64
2018-06-25T06:21:46.522Z,97777.63
2018-06-25T06:24:16.329Z,97782.52
2018-06-25T06:26:46.097Z,97780.98
2018-06-25T06:29:15.842Z,97789.13
2018-06-25T06:31:45.775Z,97791.16
2018-06-25T06:34:15.635Z,97789.52
2018-06-25T06:36:45.471Z,97793.16
2018-06-25T06:39:16.430Z,97792.45
2018-06-25T06:41:47.309Z,97791.86
2018-06-25T06:44:17.079Z,97798.69
2018-06-25T06:46:46.981Z,97800.71
2018-06-25T06:49:16.814Z,97799.41
2018-06-25T06:51:46.807Z,97799.52
2018-06-25T06:54:16.604Z,97806.56
2018-06-25T06:56:46.662Z,97799.95
2018-06-25T06:59:16.423Z,97803.66
2018-06-25T07:01:46.332Z,97809.58
2018-06-25T07:04:16.384Z,97811.72
2018-06-25T07:06:46.511Z,97802.38
2018-06-25T07:09:16.380Z,97808.38
2018-06-25T07:11:46.205Z,97813.25
2018-06-25T07:14:16.028Z,97810.67
2018-06-25T07:16:46.050Z,97814.06
2018-06-25T07:19:15.925Z,97815.27
2018-06-25T07:21:45.777Z,97810.40
2018-06-25T07:24:15.623Z,97818.55
2018-06-25T07:26:45.440Z,97814.50
2018-06-25T07:29:15.345Z,97819.65
2018-06-25T07:31:45.223Z,97819.31
2018-06-25T07:34:14.998Z,97824.41
2018-06-25T07:36:44.846Z,97821.00
2018-06-25T07:39:14.491Z,97819.21
2018-06-25T07:41:44.876Z,97819.97
2018-06-25T07:44:14.663Z,97824.40
2018-06-25T07:46:44.636Z,97823.01
2018-06-25T07:49:14.487Z,97825.90
2018-06-25T07:51:44.301Z,97827.84
2018-06-25T07:54:14.019Z,97835.16
2018-06-25T07:56:43.984Z,97828.47
2018-06-25T07:59:13.997Z,97829.45
2018-06-25T08:01:43.939Z,97829.73
2018-06-25T08:04:13.698Z,97837.03
2018-06-25T08:06:43.494Z,97833.20
2018-06-25T08:09:14.019Z,97827.83
2018-06-25T08:11:43.939Z,97827.69
2018-06-25T08:14:13.700Z,97830.55
2018-06-25T08:16:43.669Z,97832.47
2018-06-25T08:19:13.532Z,97830.08
2018-06-25T08:21:43.451Z,97837.25
2018-06-25T08:24:13.160Z,97833.89
2018-06-25T08:26:43.146Z,97831.85
2018-06-25T08:29:13.024Z,97836.64
2018-06-25T08:31:42.884Z,97832.08
2018-06-25T08:34:12.787Z,97835.52
2018-06-25T08:36:42.618Z,97832.15
2018-06-25T08:39:13.860Z,97832.98
2018-06-25T08:41:43.646Z,97835.48
2018-06-25T08:44:13.392Z,97837.88
2018-06-25T08:46:43.460Z,97841.83
2018-06-25T08:49:13.203Z,97841.95
2018-06-25T08:51:43.138Z,97841.34
2018-06-25T08:54:12.925Z,97842.66
2018-06-25T08:56:42.824Z,97846.89
2018-06-25T08:59:13.251Z,97846.39
2018-06-25T09:01:43.044Z,97844.83
2018-06-25T09:04:12.850Z,97846.77
2018-06-25T09:06:42.837Z,97845.91
2018-06-25T09:09:13.962Z,97847.71
2018-06-25T09:11:43.934Z,97852.61
2018-06-25T09:14:13.794Z,97846.33
2018-06-25T09:16:43.778Z,97844.34
2018-06-25T09:19:13.530Z,97848.90
2018-06-25T09:21:43.287Z,97845.88
2018-06-25T09:24:13.321Z,97841.53
2018-06-25T09:26:43.460Z,97838.79
2018-06-25T09:29:13.299Z,97837.57
2018-06-25T09:31:43.404Z,97834.64
2018-06-25T09:34:18.259Z,97832.05
2018-06-25T09:36:48.273Z,97836.70
2018-06-25T09:39:18.014Z,97836.70
2018-06-25T09:41:48.183Z,97837.08
2018-06-25T09:44:17.853Z,97835.77
2018-06-25T09:46:47.951Z,97839.59
2018-06-25T09:49:17.701Z,97834.99
2018-06-25T09:51:47.766Z,97836.77
2018-06-25T09:54:17.530Z,97837.80
2018-06-25T09:56:47.611Z,97837.92
2018-06-25T09:59:17.384Z,97834.83
2018-06-25T10:01:47.454Z,97834.70
2018-06-25T10:04:17.569Z,97834.33
2018-06-25T10:06:47.925Z,97835.12
2018-06-25T10:09:17.973Z,97838.28
2018-06-25T10:11:48.119Z,97829.47
2018-06-25T10:14:18.092Z,97829.84
2018-06-25T10:16:48.496Z,97838.81
2018-06-25T10:19:18.649Z,97836.45
2018-06-25T10:21:48.796Z,97832.11
2018-06-25T10:24:18.796Z,97833.52
2018-06-25T10:26:48.916Z,97837.27
2018-06-25T10:29:18.788Z,97834.73
2018-06-25T10:31:48.830Z,97827.25
2018-06-25T10:34:18.580Z,97827.02
2018-06-25T10:36:49.006Z,97827.59
2018-06-25T10:39:18.968Z,97825.83
2018-06-25T10:41:48.902Z,97823.50
2018-06-25T10:44:18.932Z,97824.72
2018-06-25T10:46:48.922Z,97826.08
2018-06-25T10:49:18.995Z,97830.24
2018-06-25T10:51:49.127Z,97828.33
2018-06-25T10:54:19.169Z,97834.30
2018-06-25T10:56:49.473Z,97827.46
2018-06-25T10:59:19.739Z,97826.03
2018-06-25T11:01:49.783Z,97831.82
2018-06-25T11:04:19.620Z,97825.48
2018-06-25T11:06:49.531Z,97817.50
2018-06-25T11:09:19.298Z,97818.16
2018-06-25T11:11:49.089Z,97817.12
2018-06-25T11:14:19.176Z,97825.73
2018-06-25T11:16:49.203Z,97827.58
2018-06-25T11:19:19.130Z,97834.74
2018-06-25T11:21:49.070Z,97836.02
2018-06-25T11:24:18.924Z,97833.31
2018-06-25T11:26:48.929Z,97838.38
2018-06-25T11:29:18.758Z,97830.05
2018-06-25T11:31:48.792Z,97837.51
2018-06-25T11:34:18.809Z,97842.72
2018-06-25T11:36:48.847Z,97836.22
2018-06-25T11:39:18.694Z,97823.19
2018-06-25T11:41:48.694Z,97829.06
2018-06-25T11:44:18.532Z,97829.64
2018-06-25T11:46:48.422Z,97828.15
2018-06-25T11:49:18.328Z,97825.66
2018-06-25T11:51:48.505Z,97833.49
2018-06-25T11:54:18.429Z,97821.58
2018-06-25T11:56:48.597Z,97815.70
2018-06-25T11:59:18.441Z,97820.63
2018-06-25T12:01:48.665Z,97816.23
2018-06-25T12:04:18.817Z,97816.89
2018-06-25T12:06:48.585Z,97819.29
2018-06-25T12:09:18.325Z,97815.56
2018-06-25T12:11:48.418Z,97807.13
2018-06-25T12:14:18.364Z,97803.30
2018-06-25T12:16:48.428Z,97804.17
2018-06-25T12:19:18.353Z,97811.34
2018-06-25T12:21:48.415Z,97805.01
2018-06-25T12:24:18.480Z,97807.86
2018-06-25T12:26:48.875Z,97806.11
2018-06-25T12:29:18.793Z,97805.80
2018-06-25T12:31:48.855Z,97808.54
2018-06-25T12:34:18.580Z,97814.44
2018-06-25T12:36:48.632Z,97813.13
2018-06-25T12:39:18.732Z,97820.51
2018-06-25T12:41:48.796Z,97819.93
2018-06-25T12:44:18.883Z,97825.36
2018-06-25T12:46:49.257Z,97824.83
2018-06-25T12:49:19.389Z,97822.70
2018-06-25T12:51:49.755Z,97824.57
2018-06-25T12:54:19.572Z,97821.37
2018-06-25T12:56:49.619Z,97821.01
2018-06-25T12:59:19.637Z,97819.50
2018-06-25T13:01:49.573Z,97816.73
2018-06-25T13:04:19.531Z,97819.80
2018-06-25T13:06:49.315Z,97827.63
2018-06-25T13:09:19.292Z,97823.62
2018-06-25T13:11:49.134Z,97822.31
2018-06-25T13:14:19.117Z,97821.68
2018-06-25T13:16:48.918Z,97824.52
2018-06-25T13:19:18.765Z,97829.38
2018-06-25T13:21:48.850Z,97830.83
2018-06-25T13:24:18.614Z,97831.81
2018-06-25T13:26:48.371Z,97829.89
2018-06-25T13:29:18.269Z,97824.69
2018-06-25T13:31:48.148Z,97821.63
2018-06-25T13:34:18.204Z,97822.72
2018-06-25T13:36:48.043Z,97816.50
2018-06-25T13:39:18.011Z,97816.88
2018-06-25T13:41:48.130Z,97825.09
2018-06-25T13:44:18.157Z,97820.61
2018-06-25T13:46:48.023Z,97822.14
2018-06-25T13:49:18.085Z,97817.81
2018-06-25T13:51:50.022Z,97816.50
2018-06-25T13:54:19.893Z,97816.33
2018-06-25T13:56:50.693Z,97812.45
2018-06-25T13:59:20.620Z,97816.47
2018-06-25T14:01:51.982Z,97812.34
2018-06-25T14:04:21.973Z,97810.70
2018-06-25T14:06:52.920Z,97813.91
2018-06-25T14:09:22.937Z,97812.63
2018-06-25T14:11:54.987Z,97809.34
2018-06-25T14:14:24.953Z,97807.03
2018-06-25T14:16:55.793Z,97812.33
2018-06-25T14:19:25.779Z,97804.69
2018-06-25T14:21:57.430Z,97810.52
2018-06-25T14:24:32.128Z,97810.17
2018-06-25T14:27:07.134Z,97805.14
2018-06-25T14:29:37.524Z,97800.84
2018-06-25T14:32:12.623Z,97806.20
2018-06-25T14:34:42.331Z,97807.83
2018-06-25T14:37:13.045Z,97812.34
2018-06-25T14:39:42.766Z,97810.24
2018-06-25T14:42:12.626Z,97808.84
2018-06-25T14:44:42.347Z,97811.22
2018-06-25T14:47:12.099Z,97817.94
2018-06-25T14:49:42.097Z,97825.31
2018-06-25T14:52:11.933Z,97818.39
2018-06-25T14:54:41.861Z,97804.84
2018-06-25T14:57:11.793Z,97808.97
2018-06-25T14:59:41.700Z,97813.53
2018-06-25T15:02:11.531Z,97816.05
2018-06-25T15:04:41.557Z,97807.73
2018-06-25T15:07:12.861Z,97812.80
2018-06-25T15:09:42.823Z,97813.41
2018-06-25T15:12:14.200Z,97823.52
2018-06-25T15:14:44.106Z,97826.67
2018-06-25T15:17:14.986Z,97818.19
2018-06-25T15:19:45.024Z,97823.72
2018-06-25T15:22:16.817Z,97820.98
2018-06-25T15:24:46.962Z,97817.59
2018-06-25T15:27:17.491Z,97821.28
2018-06-25T15:29:47.386Z,97815.35
2018-06-25T15:32:18.468Z,97817.35
2018-06-25T15:34:48.417Z,97816.83
2018-06-25T15:37:19.316Z,97814.36
2018-06-25T15:39:49.124Z,97809.20
2018-06-25T15:42:20.082Z,97801.71
2018-06-25T15:44:49.856Z,97804.98
2018-06-25T15:47:20.907Z,97804.83
2018-06-25T15:49:50.868Z,97806.91
2018-06-25T15:52:20.720Z,97803.02
2018-06-25T15:54:51.124Z,97800.77
2018-06-25T15:57:21.035Z,97808.23
2018-06-25T15:59:51.005Z,97805.70
2018-06-25T16:02:20.925Z,97803.73
2018-06-25T16:04:50.865Z,97812.23
2018-06-25T16:07:21.857Z,97816.20
2018-06-25T16:09:51.898Z,97817.58
2018-06-25T16:12:21.720Z,97822.52
2018-06-25T16:14:51.783Z,97827.87
2018-06-25T16:17:21.712Z,97830.16
2018-06-25T16:19:51.645Z,97826.16
2018-06-25T16:22:21.530Z,97818.36
2018-06-25T16:24:51.780Z,97816.68
2018-06-25T16:27:21.737Z,97816.00
2018-06-25T16:29:52.076Z,97813.80
2018-06-25T16:32:22.091Z,97816.64
2018-06-25T16:34:52.137Z,97819.67
2018-06-25T16:37:22.067Z,97815.70
2018-06-25T16:39:52.018Z,97817.88
2018-06-25T16:42:22.069Z,97815.66
2018-06-25T16:44:52.101Z,97811.97
2018-06-25T16:47:22.015Z,97812.63
2018-06-25T16:49:52.064Z,97810.27
2018-06-25T16:52:22.034Z,97818.35
2018-06-25T16:54:52.232Z,97814.68
2018-06-25T16:57:22.232Z,97812.09
2018-06-25T16:59:52.632Z,97813.97
2018-06-25T17:02:22.716Z,97811.34
2018-06-25T17:04:52.776Z,97814.77
2018-06-25T17:07:22.821Z,97818.73
2018-06-25T17:09:52.991Z,97815.55
2018-06-25T17:12:23.123Z,97820.73
2018-06-25T17:14:53.055Z,97821.03
2018-06-25T17:17:22.938Z,97827.38
2018-06-25T17:19:54.040Z,97832.42
2018-06-25T17:22:23.885Z,97834.56
2018-06-25T17:24:53.761Z,97831.83
2018-06-25T17:27:23.763Z,97829.47
2018-06-25T17:29:53.636Z,97829.11
2018-06-25T17:32:23.422Z,97838.50
2018-06-25T17:34:54.080Z,97830.88
2018-06-25T17:37:24.972Z,97836.41
2018-06-25T17:39:56.150Z,97838.86
2018-06-25T17:42:29.412Z,97837.61
2018-06-25T17:45:00.145Z,97840.31
2018-06-25T17:47:29.847Z,97844.13
2018-06-25T17:49:59.937Z,97846.06
2018-06-25T17:52:29.969Z,97846.07
2018-06-25T17:55:00.140Z,97842.31
2018-06-25T17:57:29.886Z,97847.67
2018-06-25T18:00:00.001Z,97846.15
2018-06-25T18:02:29.836Z,97835.13
2018-06-25T18:04:59.788Z,97841.12
2018-06-25T18:07:29.762Z,97841.54
2018-06-25T18:09:59.772Z,97851.84
2018-06-25T18:12:29.732Z,97845.76
2018-06-25T18:15:00.389Z,97848.53
2018-06-25T18:17:30.312Z,97856.28
2018-06-25T18:20:00.406Z,97854.35
2018-06-25T18:22:30.231Z,97856.70
2018-06-25T18:25:00.434Z,97862.77
2018-06-25T18:27:30.350Z,97864.20
2018-06-25T18:30:00.560Z,97868.22
2018-06-25T18:32:32.087Z,97873.89
2018-06-25T18:35:02.985Z,97875.41
2018-06-25T18:37:33.539Z,97880.02
2018-06-25T18:40:03.990Z,97875.69
2018-06-25T18:42:34.861Z,97876.82
2018-06-25T18:45:06.281Z,97883.21
2018-06-25T18:47:39.740Z,97888.55
2018-06-25T18:50:09.878Z,97883.73
2018-06-25T18:52:41.282Z,97886.62
2018-06-25T18:55:11.961Z,97885.57
2018-06-25T18:57:42.868Z,97891.73
2018-06-25T19:00:13.241Z,97891.31
2018-06-25T19:02:43.733Z,97899.68
2018-06-25T19:05:16.856Z,97905.75
2018-06-25T19:07:47.262Z,97908.17
2018-06-25T19:10:18.520Z,97907.64
2018-06-25T19:12:49.678Z,97907.63
2018-06-25T19:15:22.999Z,97923.80
2018-06-25T19:17:54.790Z,97925.12
2018-06-25T19:20:25.511Z,97927.80
2018-06-25T19:22:57.724Z,97936.44
2018-06-25T19:25:29.116Z,97933.25
2018-06-25T19:28:00.142Z,97939.55
2018-06-25T19:30:33.076Z,97938.16
2018-06-25T19:33:06.383Z,97952.22
2018-06-25T19:35:37.762Z,97955.67
2018-06-25T19:38:17.029Z,97958.43
2018-06-25T19:40:48.439Z,97960.50
2018-06-25T19:43:18.785Z,97964.94
2018-06-25T19:45:51.632Z,97967.30
2018-06-25T19:48:26.403Z,97978.62
2018-06-25T19:50:57.656Z,97985.35
2018-06-25T19:53:28.468Z,97985.64
2018-06-25T19:55:58.756Z,97987.41
2018-06-25T19:58:29.142Z,97989.29
2018-06-25T20:00:59.172Z,97990.39
2018-06-25T20:03:28.901Z,97992.45
2018-06-25T20:05:58.893Z,97994.03
2018-06-25T20:08:28.858Z,97993.09
2018-06-25T20:10:58.907Z,97992.73
2018-06-25T20:13:28.682Z,97997.40
2018-06-25T20:15:58.708Z,97995.50
2018-06-25T20:18:28.740Z,98005.58
2018-06-25T20:20:58.830Z,98002.84
2018-06-25T20:23:28.686Z,98002.57
2018-06-25T20:25:58.883Z,97996.52
2018-06-25T20:28:28.720Z,98005.15
2018-06-25T20:30:58.657Z,98004.45
2018-06-25T20:33:28.633Z,98005.41
2018-06-25T20:35:58.749Z,98008.11
2018-06-25T20:38:28.488Z,98004.36
2018-06-25T20:40:58.242Z,98006.66
2018-06-25T20:43:28.131Z,98008.53
2018-06-25T20:45:58.985Z,98006.75
2018-06-25T20:48:29.131Z,98005.14
2018-06-25T20:50:59.481Z,98006.53
2018-06-25T20:53:29.327Z,98005.70
2018-06-25T20:55:59.294Z,98007.39
2018-06-25T20:58:29.071Z,98005.53
2018-06-25T21:00:59.496Z,97998.69
2018-06-25T21:03:29.354Z,98004.39
2018-06-25T21:05:59.355Z,98002.25
2018-06-25T21:08:29.408Z,98003.65
2018-06-25T21:10:59.589Z,98006.73
2018-06-25T21:13:29.541Z,98006.26
2018-06-25T21:15:59.576Z,98010.99
2018-06-25T21:18:29.601Z,98011.72
2018-06-25T21:20:59.354Z,98004.58
2018-06-25T21:23:29.217Z,98008.31
2018-06-25T21:25:59.395Z,98016.45
2018-06-25T21:28:29.263Z,98012.88
2018-06-25T21:30:59.267Z,98010.26
2018-06-25T21:33:29.272Z,98012.20
2018-06-25T21:35:59.335Z,98010.90
2018-06-25T21:38:29.223Z,98015.34
2018-06-25T21:40:59.083Z,98014.52
2018-06-25T21:43:28.790Z,98013.67
2018-06-25T21:45:58.708Z,98009.84
2018-06-25T21:48:28.500Z,98013.09
2018-06-25T21:50:58.241Z,98013.92
2018-06-25T21:53:28.261Z,98010.38
2018-06-25T21:55:58.978Z,98013.67
2018-06-25T21:58:28.876Z,98018.20
2018-06-25T22:00:58.943Z,98017.63
2018-06-25T22:03:28.919Z,98019.89
2018-06-25T22:05:58.745Z,98016.26
2018-06-25T22:08:28.743Z,98006.65
2018-06-25T22:10:58.561Z,98011.64
2018-06-25T22:13:28.369Z,98007.97
2018-06-25T22:15:58.365Z,98012.59
2018-06-25T22:18:28.120Z,98008.17
2018-06-25T22:20:58.179Z,98007.10
2018-06-25T22:23:28.006Z,98016.01
2018-06-25T22:25:58.143Z,98020.16
2018-06-25T22:28:27.900Z,98014.75
2018-06-25T22:30:57.948Z,98013.32
2018-06-25T22:33:27.748Z,98010.55
2018-06-25T22:35:57.500Z,98016.29
2018-06-25T22:38:27.200Z,98013.88
2018-06-25T22:40:57.075Z,98002.93
2018-06-25T22:43:26.947Z,98005.80
2018-06-25T22:45:56.767Z,98002.33
2018-06-25T22:48:27.597Z,98006.87
2018-06-25T22:50:57.363Z,98003.11
2018-06-25T22:53:26.971Z,97996.28
2018-06-25T22:55:56.856Z,97992.80
2018-06-25T22:58:26.572Z,98001.17
2018-06-25T23:00:56.435Z,98000.70
2018-06-25T23:03:26.483Z,98004.97
